Terminal Aerodrome Forecast
Issued by NWS Central Illinois

Home | Current Version | Previous Version | Text Only | Print | Product List | Glossary On
Versions: 1 2 3 4 5 6 7 8 9 10 11 12 13 14 15 16 17 18 19 20 21 22 23 24 25 26
820
FTUS43 KILX 030528
TAFSPI
TAF
KSPI 030528Z 0306/0406 32004KT P6SM BKN070
     FM030800 VRB03KT P6SM SCT120
     FM031500 31008KT P6SM SCT050
     FM032100 30011KT P6SM BKN050
     FM040100 27006KT P6SM BKN050=

USA.gov is the U.S. government's official web portal to all federal, state and local government web resources and services.